Time;durP1;ratioP1;P1;durP2;ratioP2;P2;SDS_P1;SDS_P2;PMS_P1;PMS_P2;Temp;Humidity;BMP_temperature;BMP_pressure;BME280_temperature;BME280_humidity;BME280_pressure;Samples;Min_cycle;Max_cycle;Signal;HPM_P1;HPM_P2
2022/10/24 04:01:30;;;;;;;0.60;0.10;;;15.30;99.90;;;;;;5586327;23;20493;-82
2022/10/24 04:03:58;;;;;;;0.50;0.10;;;15.30;99.90;;;;;;4983116;28;20461;-84
2022/10/24 04:06:26;;;;;;;0.60;0.10;;;15.20;99.90;;;;;;4981563;28;20445;-83
2022/10/24 04:08:57;;;;;;;0.60;0.10;;;15.10;99.90;;;;;;4982625;28;20449;-83
2022/10/24 04:11:25;;;;;;;0.60;0.10;;;15.10;99.90;;;;;;4981959;28;20497;-83
2022/10/24 04:13:53;;;;;;;0.60;0.10;;;15.20;99.90;;;;;;4981665;28;20454;-83
2022/10/24 04:16:22;;;;;;;0.60;0.10;;;15.10;99.90;;;;;;4990754;23;20552;-76
2022/10/24 04:18:52;;;;;;;0.60;0.10;;;15.10;99.90;;;;;;4976199;28;20994;-76
2022/10/24 04:21:20;;;;;;;0.53;0.10;;;15.10;99.90;;;;;;4968846;28;20438;-76
2022/10/24 04:23:49;;;;;;;0.60;0.10;;;15.20;99.90;;;;;;4974978;28;20454;-74
2022/10/24 04:26:18;;;;;;;0.57;0.10;;;15.20;99.90;;;;;;4968108;28;20497;-76
2022/10/24 04:28:46;;;;;;;0.57;0.10;;;15.20;99.90;;;;;;4975332;28;20508;-76
2022/10/24 04:31:15;;;;;;;0.60;0.10;;;15.20;99.90;;;;;;4974444;28;20540;-76
2022/10/24 04:33:49;;;;;;;0.60;0.10;;;15.20;99.90;;;;;;4973274;28;20956;-75
2022/10/24 04:36:20;;;;;;;0.60;0.10;;;15.20;99.90;;;;;;4976161;28;20496;-77
2022/10/24 04:38:48;;;;;;;0.60;0.20;;;15.20;99.90;;;;;;4997521;28;20931;-76
2022/10/24 04:41:16;;;;;;;0.60;0.10;;;15.20;99.90;;;;;;4995340;28;20483;-76
2022/10/24 04:43:44;;;;;;;0.57;0.10;;;15.20;99.90;;;;;;4994625;28;20445;-77
2022/10/24 04:46:11;;;;;;;0.60;0.10;;;15.30;99.90;;;;;;4995523;28;20980;-76
2022/10/24 04:48:39;;;;;;;0.60;0.10;;;15.30;99.90;;;;;;4995219;28;20533;-76
2022/10/24 04:51:07;;;;;;;0.53;0.10;;;15.30;99.90;;;;;;4965753;28;20514;-77
2022/10/24 04:53:36;;;;;;;0.60;0.10;;;15.30;99.90;;;;;;4957300;29;20460;-76
2022/10/24 04:56:05;;;;;;;0.60;0.10;;;15.30;99.90;;;;;;4956863;28;20494;-77
2022/10/24 04:58:32;;;;;;;0.60;0.10;;;15.30;99.90;;;;;;4956675;29;20502;-76
2022/10/24 05:01:00;;;;;;;0.60;0.10;;;15.30;99.90;;;;;;4968833;28;20470;-77
2022/10/24 05:03:28;;;;;;;0.60;0.10;;;15.40;99.90;;;;;;4975788;28;20446;-77
2022/10/24 05:05:58;;;;;;;0.60;0.10;;;15.40;99.90;;;;;;4975446;28;21012;-76
2022/10/24 05:08:26;;;;;;;0.60;0.10;;;15.50;99.90;;;;;;4975951;28;20446;-75
2022/10/24 05:10:55;;;;;;;0.60;0.10;;;15.50;99.90;;;;;;4968469;28;20499;-74
2022/10/24 05:13:23;;;;;;;0.60;0.10;;;15.50;99.90;;;;;;4956238;29;20956;-78
2022/10/24 05:15:51;;;;;;;0.60;0.10;;;15.50;99.90;;;;;;4957654;28;20483;-77
2022/10/24 05:18:19;;;;;;;0.60;0.10;;;15.50;99.90;;;;;;4964540;28;20514;-75
2022/10/24 05:20:47;;;;;;;0.60;0.10;;;15.50;99.90;;;;;;4976564;28;20517;-76
2022/10/24 05:23:15;;;;;;;0.60;0.10;;;15.50;99.90;;;;;;4983456;28;20470;-77
2022/10/24 05:25:42;;;;;;;0.60;0.10;;;15.50;99.90;;;;;;4983804;28;20458;-77
2022/10/24 05:28:11;;;;;;;0.60;0.10;;;15.40;99.90;;;;;;4975962;28;20805;-76
2022/10/24 05:30:39;;;;;;;0.60;0.10;;;15.50;99.90;;;;;;4976069;28;20536;-76
2022/10/24 05:33:07;;;;;;;0.60;0.20;;;15.50;99.90;;;;;;4971806;28;20462;-76
2022/10/24 05:35:35;;;;;;;0.53;0.10;;;15.40;99.90;;;;;;4974983;28;20446;-77
2022/10/24 05:38:03;;;;;;;0.60;0.10;;;15.40;99.90;;;;;;4975320;28;20451;-77
2022/10/24 05:40:31;;;;;;;0.60;0.10;;;15.50;99.90;;;;;;4970469;28;20442;-76
2022/10/24 05:42:58;;;;;;;0.60;0.10;;;15.40;99.90;;;;;;4975624;28;20450;-78
2022/10/24 05:45:28;;;;;;;0.60;0.10;;;15.40;99.90;;;;;;4974619;28;20462;-78
2022/10/24 05:47:55;;;;;;;0.60;0.10;;;14.20;99.90;;;;;;4982824;28;20828;-77
2022/10/24 05:50:25;;;;;;;0.60;0.10;;;15.40;99.90;;;;;;4978565;28;20816;-76
2022/10/24 05:52:53;;;;;;;0.60;0.10;;;15.50;99.90;;;;;;4976203;28;20450;-76
2022/10/24 05:55:21;;;;;;;0.60;0.10;;;15.60;99.90;;;;;;4974697;28;20501;-75
2022/10/24 05:57:49;;;;;;;2.43;1.03;;;15.60;99.90;;;;;;4976037;28;20453;-78
2022/10/24 06:00:17;;;;;;;0.60;0.10;;;15.60;99.90;;;;;;4980977;28;20970;-76
2022/10/24 06:02:46;;;;;;;0.60;0.10;;;15.70;99.90;;;;;;4985238;28;20450;-77
2022/10/24 06:05:14;;;;;;;0.60;0.10;;;15.80;99.90;;;;;;4977994;28;20457;-76
2022/10/24 06:07:42;;;;;;;0.60;0.10;;;15.90;99.90;;;;;;4978200;28;20442;-76
2022/10/24 06:10:13;;;;;;;0.60;0.10;;;15.90;99.90;;;;;;4975051;28;20888;-77
2022/10/24 06:12:40;;;;;;;0.60;0.20;;;16.00;99.90;;;;;;4958411;28;20518;-78
2022/10/24 06:15:12;;;;;;;0.60;0.10;;;16.10;99.90;;;;;;4987616;28;20457;-76
2022/10/24 06:17:39;;;;;;;0.60;0.10;;;16.10;99.90;;;;;;4997908;28;20492;-78
2022/10/24 06:20:10;;;;;;;0.60;0.20;;;16.10;99.90;;;;;;4980483;28;20449;-77
2022/10/24 06:22:38;;;;;;;0.60;0.10;;;16.10;99.90;;;;;;4977151;28;20822;-77
2022/10/24 06:25:06;;;;;;;0.60;0.10;;;16.00;99.90;;;;;;4975139;28;20454;-76
2022/10/24 06:27:34;;;;;;;0.60;0.10;;;16.00;99.90;;;;;;4974629;28;20458;-78
2022/10/24 06:30:02;;;;;;;0.60;0.10;;;;;;;;;;4993021;28;20480;-75
2022/10/24 06:32:30;;;;;;;0.60;0.10;;;15.90;99.90;;;;;;4994967;28;20484;-76
2022/10/24 06:34:57;;;;;;;0.60;0.10;;;15.90;99.90;;;;;;4993569;28;20450;-74
2022/10/24 06:37:29;;;;;;;0.60;0.10;;;15.90;99.90;;;;;;4993048;28;20871;-76
2022/10/24 06:39:56;;;;;;;0.60;0.10;;;15.90;99.90;;;;;;4992268;28;20452;-75
2022/10/24 06:42:25;;;;;;;0.60;0.10;;;15.90;99.90;;;;;;4988752;28;20450;-74
2022/10/24 06:44:52;;;;;;;0.60;0.10;;;15.90;99.90;;;;;;4986087;28;20461;-75
2022/10/24 06:47:20;;;;;;;0.60;0.10;;;15.80;99.90;;;;;;4976278;28;20557;-75
2022/10/24 06:49:48;;;;;;;0.60;0.10;;;15.80;99.90;;;;;;4974449;28;20438;-74
2022/10/24 06:52:16;;;;;;;0.60;0.10;;;15.80;99.90;;;;;;4973358;28;20545;-75
2022/10/24 06:54:46;;;;;;;0.60;0.10;;;;;;;;;;4973954;28;20509;-76
2022/10/24 06:57:16;;;;;;;0.60;0.10;;;15.80;99.90;;;;;;4986139;28;20473;-76
2022/10/24 06:59:44;;;;;;;0.60;0.10;;;15.90;99.90;;;;;;4982907;28;20450;-76
2022/10/24 07:02:13;;;;;;;0.60;0.10;;;15.90;99.90;;;;;;4979213;28;20454;-78
2022/10/24 07:04:41;;;;;;;0.60;0.10;;;15.90;99.90;;;;;;4978937;28;20532;-75
2022/10/24 07:07:14;;;;;;;0.60;0.10;;;15.90;99.90;;;;;;4979018;28;20845;-76
2022/10/24 07:09:42;;;;;;;0.60;0.10;;;15.90;99.90;;;;;;4977199;28;20488;-75
2022/10/24 07:12:11;;;;;;;0.60;0.10;;;15.90;99.90;;;;;;4990080;28;20500;-75
2022/10/24 07:14:39;;;;;;;0.60;0.10;;;15.90;99.90;;;;;;5007857;28;20476;-77
2022/10/24 07:17:07;;;;;;;0.60;0.10;;;15.90;99.90;;;;;;5009862;28;20983;-74
2022/10/24 07:19:35;;;;;;;0.60;0.10;;;15.90;99.90;;;;;;5008153;28;20437;-74
2022/10/24 07:22:04;;;;;;;0.60;0.10;;;16.30;99.90;;;;;;4990175;28;20525;-75
2022/10/24 07:24:33;;;;;;;0.60;0.10;;;15.90;99.90;;;;;;4988513;28;21044;-74
2022/10/24 07:27:01;;;;;;;0.60;0.10;;;16.00;99.90;;;;;;4979211;28;20517;-76
2022/10/24 07:29:30;;;;;;;0.60;0.10;;;16.00;99.90;;;;;;4977751;28;20441;-75
2022/10/24 07:31:58;;;;;;;0.60;0.10;;;16.00;99.90;;;;;;4994789;28;20542;-75
2022/10/24 07:34:26;;;;;;;0.60;0.10;;;16.00;99.90;;;;;;4995609;28;20879;-75
2022/10/24 07:36:53;;;;;;;0.60;0.10;;;16.00;99.90;;;;;;4996197;28;20472;-78
2022/10/24 07:39:21;;;;;;;0.60;0.10;;;16.10;99.90;;;;;;4995993;28;20445;-76
2022/10/24 07:41:49;;;;;;;0.60;0.10;;;16.10;99.90;;;;;;4978208;28;20796;-75
2022/10/24 07:44:17;;;;;;;0.60;0.10;;;16.10;99.90;;;;;;4975744;28;20482;-76
2022/10/24 07:46:46;;;;;;;0.60;0.10;;;16.20;99.90;;;;;;4976045;28;20877;-75
2022/10/24 07:49:14;;;;;;;0.60;0.10;;;16.20;99.90;;;;;;4975939;28;20454;-75
2022/10/24 07:51:42;;;;;;;0.60;0.10;;;16.20;99.90;;;;;;4991809;28;20894;-77
2022/10/24 07:54:13;;;;;;;0.60;0.10;;;16.30;99.90;;;;;;4995466;28;20819;-77
2022/10/24 07:56:42;;;;;;;0.60;0.10;;;16.30;99.90;;;;;;4996571;28;20476;-78
2022/10/24 07:59:09;;;;;;;0.60;0.10;;;16.20;99.90;;;;;;4997919;28;20472;-77
2022/10/24 08:01:59;;;;;;;0.60;0.10;;;16.30;99.90;;;;;;4995445;28;20441;-76
2022/10/24 08:04:27;;;;;;;0.60;0.10;;;17.30;99.90;;;;;;4996044;28;20453;-77
2022/10/24 08:06:56;;;;;;;0.60;0.10;;;16.40;99.90;;;;;;4966108;28;20466;-77
2022/10/24 08:09:25;;;;;;;0.60;0.20;;;16.40;99.90;;;;;;4974741;28;20438;-76
2022/10/24 08:11:53;;;;;;;0.60;0.10;;;16.40;99.90;;;;;;4961173;28;20506;-76
2022/10/24 08:14:20;;;;;;;0.60;0.10;;;16.50;99.90;;;;;;4967990;28;20532;-77
2022/10/24 08:16:48;;;;;;;0.60;0.10;;;16.40;99.90;;;;;;4965783;28;20470;-75
2022/10/24 08:19:17;;;;;;;0.60;0.10;;;16.40;99.90;;;;;;4967115;28;20439;-76
2022/10/24 08:21:45;;;;;;;0.60;0.10;;;16.50;99.90;;;;;;4970881;28;20968;-77
2022/10/24 08:24:13;;;;;;;0.60;0.10;;;16.50;99.90;;;;;;4972525;28;21015;-76
2022/10/24 08:26:41;;;;;;;0.70;0.40;;;16.50;99.90;;;;;;4968913;28;20497;-78
2022/10/24 08:29:10;;;;;;;0.60;0.10;;;16.50;99.90;;;;;;4966555;28;20450;-77
2022/10/24 08:31:38;;;;;;;20.53;1.90;;;16.50;99.90;;;;;;4970167;28;20858;-77
2022/10/24 08:34:07;;;;;;;0.60;0.10;;;16.50;99.90;;;;;;4967540;28;20443;-76
2022/10/24 08:36:36;;;;;;;0.60;0.10;;;16.60;99.90;;;;;;4972402;28;20470;-77
2022/10/24 08:39:04;;;;;;;0.60;0.17;;;16.60;99.90;;;;;;4976627;28;20508;-78
2022/10/24 08:41:35;;;;;;;0.60;0.10;;;16.70;99.90;;;;;;4991956;28;20512;-77
2022/10/24 08:44:13;;;;;;;0.70;0.33;;;16.80;99.90;;;;;;4973269;28;20434;-78
2022/10/24 08:46:49;;;;;;;0.60;0.20;;;16.80;99.90;;;;;;4962700;28;20521;-77
2022/10/24 08:49:24;;;;;;;0.60;0.20;;;16.80;99.90;;;;;;4957000;29;20462;-76
2022/10/24 08:51:56;;;;;;;2.33;2.13;;;16.90;99.90;;;;;;4999543;28;20452;-77
2022/10/24 08:54:29;;;;;;;0.60;0.40;;;17.00;99.90;;;;;;4990110;28;20454;-76
2022/10/24 08:56:58;;;;;;;0.60;0.20;;;17.10;99.90;;;;;;4966069;28;20804;-77
2022/10/24 08:59:29;;;;;;;0.60;0.10;;;17.10;99.90;;;;;;4973976;28;20478;-76
2022/10/24 09:02:00;;;;;;;0.60;0.13;;;17.20;99.90;;;;;;4992113;28;20484;-76
2022/10/24 09:04:39;;;;;;;0.60;0.10;;;17.30;99.90;;;;;;4992717;28;20449;-76
2022/10/24 09:07:17;;;;;;;0.80;0.50;;;17.40;97.20;;;;;;4998709;28;20477;-78
2022/10/24 09:09:49;;;;;;;0.60;0.10;;;16.30;96.70;;;;;;4999818;28;20990;-76
2022/10/24 09:12:19;;;;;;;0.60;0.10;;;17.60;95.60;;;;;;4960413;28;20513;-77
2022/10/24 09:14:54;;;;;;;0.60;0.10;;;17.70;91.40;;;;;;4970396;29;20443;-80
2022/10/24 09:17:29;;;;;;;0.60;0.10;;;17.70;91.30;;;;;;4964168;28;20479;-80
2022/10/24 09:19:59;;;;;;;0.70;0.30;;;17.70;90.20;;;;;;4960896;28;20494;-78
2022/10/24 09:22:32;;;;;;;0.60;0.10;;;17.80;78.60;;;;;;4999226;28;20464;-80
2022/10/24 09:25:03;;;;;;;0.60;0.10;;;17.80;79.20;;;;;;5003071;28;20449;-78
2022/10/24 09:27:34;;;;;;;0.60;0.10;;;17.80;75.30;;;;;;4989418;28;20490;-78
2022/10/24 09:30:04;;;;;;;3.43;2.10;;;17.80;80.30;;;;;;4982486;28;20591;-79
2022/10/24 09:32:33;;;;;;;0.60;0.10;;;17.90;87.80;;;;;;5003490;28;20527;-79
2022/10/24 09:35:05;;;;;;;0.90;0.37;;;17.90;91.20;;;;;;5001286;28;20449;-77
2022/10/24 09:37:39;;;;;;;0.60;0.10;;;17.90;90.40;;;;;;5000162;28;20472;-80
2022/10/24 09:40:18;;;;;;;1.43;1.20;;;18.00;92.70;;;;;;5000878;28;20824;-78
2022/10/24 09:42:53;;;;;;;0.60;0.10;;;18.10;90.70;;;;;;4981251;28;20442;-80
2022/10/24 09:45:35;;;;;;;0.60;0.10;;;18.20;63.90;;;;;;4980637;28;20507;-77
2022/10/24 09:48:06;;;;;;;0.60;0.10;;;18.20;67.80;;;;;;4983542;28;20453;-79
2022/10/24 09:50:35;;;;;;;0.60;0.20;;;18.30;57.10;;;;;;4983938;28;20481;-80
2022/10/24 09:53:05;;;;;;;0.60;0.20;;;18.40;30.00;;;;;;4999150;28;20480;-80
2022/10/24 09:55:44;;;;;;;0.60;0.10;;;18.50;30.00;;;;;;5004524;28;20979;-80
2022/10/24 09:58:18;;;;;;;0.60;0.10;;;18.50;33.60;;;;;;4990457;28;20473;-78
2022/10/24 10:00:57;;;;;;;0.60;0.10;;;18.60;33.60;;;;;;4976453;28;20615;-77
2022/10/24 10:03:27;;;;;;;0.70;0.33;;;18.70;33.50;;;;;;4997719;28;20457;-78
2022/10/24 10:05:57;;;;;;;0.60;0.10;;;18.80;14.80;;;;;;4996399;28;20468;-77
2022/10/24 10:08:30;;;;;;;0.60;0.10;;;18.70;14.30;;;;;;4995790;28;20499;-78
2022/10/24 10:11:05;;;;;;;0.60;0.10;;;18.80;14.60;;;;;;4994400;28;20508;-78
2022/10/24 10:13:39;;;;;;;0.60;0.20;;;18.80;12.90;;;;;;4995427;28;20483;-77
2022/10/24 10:16:07;;;;;;;0.93;0.83;;;18.90;1.00;;;;;;4995835;28;20526;-79
2022/10/24 10:18:45;;;;;;;0.60;0.20;;;18.90;1.00;;;;;;4992892;28;20882;-77
2022/10/24 10:21:15;;;;;;;0.60;0.10;;;18.90;1.00;;;;;;4975994;28;20478;-79
2022/10/24 10:23:46;;;;;;;0.60;0.10;;;19.00;1.00;;;;;;4976139;28;20509;-76
2022/10/24 10:26:21;;;;;;;0.60;0.10;;;19.10;1.00;;;;;;4974799;28;20822;-78
2022/10/24 10:29:20;;;;;;;1.40;0.93;;;19.20;1.00;;;;;;4976223;28;20446;-78
2022/10/24 10:31:52;;;;;;;0.60;0.20;;;19.20;1.00;;;;;;4972491;28;20456;-77
2022/10/24 10:34:28;;;;;;;0.60;0.10;;;19.30;1.00;;;;;;4961932;28;20552;-78
2022/10/24 10:37:28;;;;;;;0.60;0.10;;;19.40;1.00;;;;;;4981842;28;20481;-77
2022/10/24 10:40:18;;;;;;;0.60;0.10;;;19.40;1.00;;;;;;4982062;28;21053;-78
2022/10/24 10:42:57;;;;;;;0.60;0.10;;;19.40;1.00;;;;;;4981141;28;20454;-77
2022/10/24 10:45:34;;;;;;;0.60;0.10;;;19.40;1.00;;;;;;4977172;28;20488;-78
2022/10/24 10:48:16;;;;;;;0.60;0.20;;;19.40;1.00;;;;;;4961825;28;20470;-78
2022/10/24 10:50:49;;;;;;;0.60;0.17;;;19.40;1.00;;;;;;4961678;29;20439;-78
2022/10/24 10:53:29;;;;;;;0.60;0.10;;;19.40;1.00;;;;;;4956880;29;20865;-78
2022/10/24 10:56:03;;;;;;;0.60;0.10;;;19.50;1.00;;;;;;4982528;28;20635;-76
2022/10/24 10:58:40;;;;;;;0.60;0.10;;;19.50;1.00;;;;;;4981937;28;21128;-78
2022/10/24 11:01:16;;;;;;;0.60;0.10;;;19.50;1.00;;;;;;4978184;28;20458;-77
2022/10/24 11:03:50;;;;;;;0.60;0.20;;;19.60;1.00;;;;;;4971656;28;20955;-78
2022/10/24 11:06:30;;;;;;;0.60;0.10;;;19.60;1.00;;;;;;4973890;28;20853;-76
2022/10/24 11:09:23;;;;;;;0.60;0.10;;;19.60;1.00;;;;;;4975759;28;20960;-77
2022/10/24 11:12:00;;;;;;;0.77;0.30;;;19.60;1.00;;;;;;4972245;28;20539;-78
2022/10/24 11:14:32;;;;;;;0.80;0.43;;;19.60;1.00;;;;;;4977491;28;20469;-76
2022/10/24 11:17:09;;;;;;;0.80;0.30;;;19.60;1.00;;;;;;4983320;28;20501;-81
2022/10/24 11:19:45;;;;;;;0.60;0.10;;;19.70;1.00;;;;;;4980084;28;20917;-78
2022/10/24 11:22:19;;;;;;;0.60;0.10;;;19.80;1.00;;;;;;4978775;28;20485;-78
2022/10/24 11:24:55;;;;;;;0.60;0.10;;;19.80;1.00;;;;;;4976013;28;20938;-76
2022/10/24 11:27:31;;;;;;;0.77;0.50;;;19.90;1.00;;;;;;4977862;28;20517;-79
2022/10/24 11:30:04;;;;;;;0.60;0.10;;;19.90;1.00;;;;;;4978590;28;20441;-77
2022/10/24 11:32:37;;;;;;;0.70;0.37;;;19.90;1.00;;;;;;4974660;28;20455;-78
2022/10/24 11:35:21;;;;;;;0.80;0.47;;;19.90;1.00;;;;;;4983776;28;20485;-78
2022/10/24 11:37:53;;;;;;;8.00;0.97;;;19.90;1.00;;;;;;4981929;28;20450;-79
2022/10/24 11:40:22;;;;;;;4.30;0.67;;;19.80;1.00;;;;;;4976248;28;21152;-76
2022/10/24 11:42:58;;;;;;;2.00;0.70;;;20.00;1.00;;;;;;4982509;28;20454;-78
2022/10/24 11:45:29;;;;;;;0.70;0.40;;;20.10;1.00;;;;;;4982608;28;20504;-76
2022/10/24 11:48:04;;;;;;;1.13;0.83;;;20.10;1.00;;;;;;4998170;28;20473;-77
2022/10/24 11:50:39;;;;;;;0.60;0.10;;;20.10;1.00;;;;;;5001011;28;20459;-78
2022/10/24 11:53:20;;;;;;;0.60;0.20;;;20.20;1.00;;;;;;5003203;28;20453;-78
2022/10/24 11:55:54;;;;;;;0.60;0.10;;;20.20;1.00;;;;;;5003548;28;20461;-77
2022/10/24 11:58:27;;;;;;;0.60;0.20;;;20.20;1.00;;;;;;5001758;28;20543;-76
2022/10/24 12:01:11;;;;;;;0.60;0.20;;;20.20;1.00;;;;;;5004167;28;20469;-79
2022/10/24 12:04:16;;;;;;;1.07;0.40;;;20.20;1.00;;;;;;5004544;28;20991;-79
2022/10/24 12:07:20;;;;;;;0.60;0.10;;;20.20;1.00;;;;;;4985406;28;20474;-77
2022/10/24 12:10:03;;;;;;;0.60;0.10;;;20.30;1.00;;;;;;4977942;28;20449;-77
2022/10/24 12:12:46;;;;;;;0.60;0.10;;;20.30;1.00;;;;;;4960267;29;20447;-77
2022/10/24 12:15:30;;;;;;;0.60;0.20;;;20.40;1.00;;;;;;4973173;28;20851;-78
2022/10/24 12:18:06;;;;;;;1.43;0.83;;;20.40;1.00;;;;;;5002232;28;20932;-77
2022/10/24 12:20:35;;;;;;;0.60;0.10;;;20.40;1.00;;;;;;4998847;28;20507;-78
2022/10/24 12:23:04;;;;;;;0.60;0.10;;;20.40;1.00;;;;;;5000712;28;20464;-79
2022/10/24 12:25:34;;;;;;;0.60;0.10;;;20.60;1.00;;;;;;4998448;28;20445;-76
2022/10/24 12:28:04;;;;;;;0.60;0.10;;;20.70;1.00;;;;;;4991782;28;21103;-80
2022/10/24 12:30:35;;;;;;;0.90;0.77;;;20.70;1.00;;;;;;4980579;28;20728;-78
2022/10/24 12:33:24;;;;;;;0.70;0.33;;;20.80;1.00;;;;;;4985936;28;20442;-77
2022/10/24 12:35:55;;;;;;;2.63;0.40;;;20.90;1.00;;;;;;4988289;28;20536;-82
2022/10/24 12:39:06;;;;;;;1.67;0.97;;;20.90;1.00;;;;;;4980364;28;20442;-77
2022/10/24 12:41:43;;;;;;;0.60;0.30;;;21.00;1.00;;;;;;4989681;28;20438;-77
2022/10/24 12:44:42;;;;;;;0.60;0.10;;;20.90;1.00;;;;;;4990313;28;20437;-79
2022/10/24 12:47:39;;;;;;;0.93;0.60;;;20.90;1.00;;;;;;4971382;28;20444;-77
2022/10/24 12:50:44;;;;;;;0.60;0.20;;;20.90;1.00;;;;;;4989662;28;20457;-77
2022/10/24 12:53:31;;;;;;;0.60;0.10;;;20.80;1.00;;;;;;4982080;28;20465;-76
2022/10/24 12:56:09;;;;;;;1.00;0.90;;;20.90;1.00;;;;;;4974446;28;20502;-79
2022/10/24 12:58:38;;;;;;;0.70;0.40;;;20.80;1.00;;;;;;4978062;28;20454;-77
2022/10/24 13:01:23;;;;;;;0.60;0.20;;;20.80;1.00;;;;;;4975451;28;20439;-79
2022/10/24 13:04:25;;;;;;;0.70;0.33;;;20.80;1.00;;;;;;4972665;28;20459;-79
2022/10/24 13:07:17;;;;;;;0.70;0.40;;;20.60;1.00;;;;;;4992171;28;20551;-77
2022/10/24 13:09:56;;;;;;;1.57;0.50;;;20.60;1.00;;;;;;4995812;28;20430;-80
2022/10/24 13:12:46;;;;;;;4.10;1.00;;;20.70;1.00;;;;;;4979386;28;20445;-77
2022/10/24 13:15:24;;;;;;;0.60;0.20;;;20.70;1.00;;;;;;4976162;28;20482;-78
2022/10/24 13:18:06;;;;;;;0.60;0.10;;;20.70;1.00;;;;;;4979539;28;20442;-79
2022/10/24 13:20:38;;;;;;;0.70;0.40;;;20.70;1.00;;;;;;4976727;28;20462;-80
2022/10/24 13:23:14;;;;;;;0.60;0.17;;;20.70;1.00;;;;;;4976836;28;20457;-77
2022/10/24 13:25:43;;;;;;;1.23;1.13;;;20.70;1.00;;;;;;4987920;28;20465;-79
2022/10/24 13:28:37;;;;;;;0.60;0.10;;;20.60;1.00;;;;;;4998081;28;20512;-78
2022/10/24 13:31:41;;;;;;;0.70;0.33;;;20.70;1.00;;;;;;5002860;28;20936;-80
2022/10/24 13:34:21;;;;;;;0.60;0.10;;;20.70;1.00;;;;;;5010993;28;20851;-78
2022/10/24 13:36:58;;;;;;;0.60;0.20;;;20.70;1.00;;;;;;5008781;28;20504;-78
2022/10/24 13:39:30;;;;;;;0.60;0.10;;;20.70;1.00;;;;;;4993779;28;20481;-79
2022/10/24 13:42:07;;;;;;;1.57;0.40;;;20.70;1.00;;;;;;4984858;28;20847;-79
2022/10/24 13:44:44;;;;;;;0.60;0.10;;;20.80;1.00;;;;;;4977649;28;20446;-79
2022/10/24 13:47:18;;;;;;;0.67;0.30;;;20.70;1.00;;;;;;4984112;28;20466;-79
2022/10/24 13:49:53;;;;;;;0.83;0.50;;;20.70;1.00;;;;;;4987538;28;20442;-79
2022/10/24 13:52:26;;;;;;;2.40;0.70;;;20.70;1.00;;;;;;4986830;28;20467;-80
2022/10/24 13:54:59;;;;;;;0.60;0.13;;;20.60;1.00;;;;;;4976083;28;20478;-79
2022/10/24 13:57:34;;;;;;;0.80;0.60;;;20.50;1.00;;;;;;4978718;28;21016;-79
2022/10/24 14:00:07;;;;;;;0.60;0.20;;;20.40;1.00;;;;;;4978098;28;20458;-78
2022/10/24 14:02:40;;;;;;;1.47;0.67;;;20.40;1.00;;;;;;4979101;28;20450;-80
2022/10/24 14:05:18;;;;;;;1.10;0.50;;;;;;;;;;4988900;28;20442;-78
2022/10/24 14:07:47;;;;;;;0.60;0.20;;;20.40;1.00;;;;;;4980612;28;20438;-77
2022/10/24 14:10:16;;;;;;;0.90;0.43;;;20.50;1.00;;;;;;4995863;28;20516;-79
2022/10/24 14:12:44;;;;;;;0.60;0.20;;;20.50;1.00;;;;;;4984643;28;20482;-78
2022/10/24 14:15:18;;;;;;;1.43;0.60;;;20.50;1.00;;;;;;4978096;28;20568;-78
2022/10/24 14:17:55;;;;;;;0.60;0.10;;;20.50;1.00;;;;;;4985278;28;20457;-79
2022/10/24 14:20:25;;;;;;;0.60;0.10;;;20.60;1.00;;;;;;4973679;28;20650;-77
2022/10/24 14:22:55;;;;;;;0.60;0.20;;;20.60;1.00;;;;;;4977407;28;20533;-80
2022/10/24 14:25:25;;;;;;;0.60;0.20;;;20.40;1.00;;;;;;4979694;28;20504;-78
2022/10/24 14:27:54;;;;;;;0.60;0.10;;;20.40;1.00;;;;;;4981168;28;20446;-80
2022/10/24 14:30:24;;;;;;;0.60;0.20;;;20.40;1.00;;;;;;4992143;28;20464;-79
2022/10/24 14:33:07;;;;;;;1.83;1.30;;;20.40;1.00;;;;;;4988031;28;20454;-77
2022/10/24 14:35:35;;;;;;;0.60;0.10;;;20.40;1.00;;;;;;4976800;28;20528;-79
2022/10/24 14:38:05;;;;;;;0.60;0.20;;;20.40;1.00;;;;;;4979443;28;20458;-79
2022/10/24 14:40:36;;;;;;;0.60;0.17;;;20.40;1.00;;;;;;4993906;28;20880;-78
2022/10/24 14:43:05;;;;;;;0.60;0.30;;;20.40;1.00;;;;;;4986792;28;20478;-78
2022/10/24 14:45:33;;;;;;;0.60;0.20;;;20.40;1.00;;;;;;4977527;28;20932;-79
2022/10/24 14:48:02;;;;;;;2.40;1.50;;;20.40;1.00;;;;;;4979236;28;20527;-78
2022/10/24 14:50:36;;;;;;;1.67;1.17;;;20.40;1.00;;;;;;4992967;28;20453;-79
2022/10/24 14:53:05;;;;;;;0.60;0.10;;;20.40;1.00;;;;;;4997119;28;20492;-78
2022/10/24 14:55:33;;;;;;;0.60;0.10;;;20.50;1.00;;;;;;4993776;28;20535;-79
2022/10/24 14:58:01;;;;;;;0.60;0.20;;;20.50;1.00;;;;;;4992292;28;20453;-77
2022/10/24 15:00:37;;;;;;;0.60;0.10;;;20.50;1.00;;;;;;4990967;28;21111;-77
2022/10/24 15:03:05;;;;;;;0.60;0.10;;;20.40;1.00;;;;;;4980078;28;20450;-76
2022/10/24 15:05:34;;;;;;;0.60;0.10;;;20.60;1.00;;;;;;4975344;28;20446;-78
2022/10/24 15:08:24;;;;;;;0.60;0.20;;;20.60;1.00;;;;;;4964624;28;20454;-79
2022/10/24 15:11:15;;;;;;;0.60;0.20;;;20.50;1.00;;;;;;4970839;28;20453;-79
2022/10/24 15:13:46;;;;;;;0.60;0.10;;;20.50;1.00;;;;;;4974358;28;20446;-78
2022/10/24 15:16:29;;;;;;;0.60;0.20;;;20.40;1.00;;;;;;4974337;28;20508;-79
2022/10/24 15:18:58;;;;;;;0.90;0.50;;;20.60;1.00;;;;;;4965772;28;20450;-78
2022/10/24 15:21:32;;;;;;;0.60;0.10;;;20.40;1.00;;;;;;4972480;28;20450;-76
2022/10/24 15:24:02;;;;;;;1.20;0.60;;;20.40;1.00;;;;;;4973760;28;20447;-73
2022/10/24 15:26:34;;;;;;;0.60;0.20;;;20.30;1.00;;;;;;4958613;28;20467;-73
2022/10/24 15:29:17;;;;;;;0.60;0.20;;;20.30;1.00;;;;;;4964803;28;20501;-74
2022/10/24 15:31:46;;;;;;;0.60;0.10;;;20.30;1.00;;;;;;4977471;28;20450;-74
2022/10/24 15:34:16;;;;;;;0.60;0.30;;;20.30;1.00;;;;;;4980354;28;20446;-74
2022/10/24 15:36:46;;;;;;;0.60;0.20;;;20.20;1.00;;;;;;4980070;28;20596;-74
2022/10/24 15:39:19;;;;;;;0.60;0.10;;;20.20;1.00;;;;;;4978518;28;20481;-74
2022/10/24 15:41:48;;;;;;;0.60;0.10;;;20.10;1.00;;;;;;4978295;28;21330;-74
2022/10/24 15:44:19;;;;;;;1.63;0.87;;;20.00;1.00;;;;;;4978163;28;20458;-74
2022/10/24 15:46:48;;;;;;;0.60;0.20;;;20.00;1.00;;;;;;4976891;28;20497;-73
2022/10/24 15:49:16;;;;;;;0.60;0.20;;;20.00;1.00;;;;;;4979107;28;20485;-73
2022/10/24 15:51:46;;;;;;;2.30;0.30;;;19.90;1.00;;;;;;4996137;28;20453;-75
2022/10/24 15:54:20;;;;;;;0.60;0.10;;;19.80;1.00;;;;;;4995603;28;20445;-77
2022/10/24 15:56:48;;;;;;;0.70;0.40;;;19.80;1.00;;;;;;4997161;28;20532;-75
2022/10/24 15:59:17;;;;;;;0.60;0.10;;;19.80;1.00;;;;;;4994134;28;20444;-73
2022/10/24 16:01:48;;;;;;;0.60;0.10;;;19.70;1.00;;;;;;4976948;28;20975;-75
2022/10/24 16:04:17;;;;;;;0.80;0.53;;;19.70;1.00;;;;;;4976835;28;20439;-73
2022/10/24 16:06:45;;;;;;;1.97;0.40;;;19.70;1.00;;;;;;4976628;28;20504;-73
2022/10/24 16:09:14;;;;;;;0.70;0.30;;;19.70;1.00;;;;;;4978405;28;20513;-73
2022/10/24 16:11:44;;;;;;;0.73;0.27;;;19.60;1.00;;;;;;4983732;28;20445;-76
2022/10/24 16:14:14;;;;;;;1.10;0.20;;;19.60;1.00;;;;;;4975476;28;20872;-74
2022/10/24 16:16:42;;;;;;;0.60;0.10;;;19.60;1.00;;;;;;4975836;28;20517;-74
2022/10/24 16:19:10;;;;;;;0.83;0.37;;;19.60;1.00;;;;;;4972233;28;20517;-72
2022/10/24 16:21:39;;;;;;;3.10;2.73;;;19.60;1.00;;;;;;4972654;28;21004;-73
2022/10/24 16:24:08;;;;;;;3.30;1.17;;;19.50;1.00;;;;;;4967468;28;20450;-74
2022/10/24 16:26:36;;;;;;;0.60;0.10;;;19.50;1.00;;;;;;4964173;28;20455;-74
2022/10/24 16:29:08;;;;;;;0.60;0.10;;;19.50;1.00;;;;;;4972656;28;20454;-75
2022/10/24 16:31:37;;;;;;;0.60;0.20;;;19.40;1.00;;;;;;4969897;28;20929;-77
2022/10/24 16:34:06;;;;;;;0.60;0.20;;;19.40;1.00;;;;;;4980577;23;20494;-77
2022/10/24 16:36:34;;;;;;;1.00;0.23;;;19.40;1.00;;;;;;4976323;28;20796;-78
2022/10/24 16:39:02;;;;;;;0.80;0.30;;;19.30;1.00;;;;;;4970168;28;20454;-76
2022/10/24 16:41:30;;;;;;;0.60;0.20;;;18.40;1.00;;;;;;4982200;28;20455;-77
2022/10/24 16:43:58;;;;;;;0.70;0.40;;;19.30;1.00;;;;;;4978878;28;20467;-77
2022/10/24 16:46:27;;;;;;;0.60;0.10;;;19.30;1.00;;;;;;4979899;28;20489;-78
2022/10/24 16:48:56;;;;;;;0.60;0.10;;;19.20;1.00;;;;;;4973656;28;20447;-77
2022/10/24 16:51:30;;;;;;;0.60;0.20;;;19.30;1.00;;;;;;4982601;28;20963;-77
2022/10/24 16:53:58;;;;;;;0.60;0.20;;;19.20;1.00;;;;;;4981197;28;20477;-77
2022/10/24 16:56:26;;;;;;;0.83;0.37;;;19.20;1.00;;;;;;4983843;28;20502;-79
2022/10/24 16:58:54;;;;;;;6.30;1.43;;;19.20;1.00;;;;;;4979503;28;20446;-77
2022/10/24 17:01:22;;;;;;;0.60;0.30;;;19.10;1.00;;;;;;4982355;28;20446;-76
2022/10/24 17:03:51;;;;;;;0.60;0.20;;;19.00;1.00;;;;;;4979850;28;20501;-77
2022/10/24 17:06:19;;;;;;;0.60;0.10;;;19.00;1.00;;;;;;4987917;28;20461;-77
2022/10/24 17:08:47;;;;;;;0.60;0.30;;;19.00;1.00;;;;;;5000800;28;20457;-77
2022/10/24 17:11:15;;;;;;;1.40;0.47;;;19.00;1.00;;;;;;5001093;28;20461;-76
2022/10/24 17:14:03;;;;;;;0.60;0.30;;;19.00;1.00;;;;;;4998826;28;20457;-76
2022/10/24 17:16:31;;;;;;;0.60;0.20;;;19.00;1.00;;;;;;4984759;28;20916;-77
2022/10/24 17:19:00;;;;;;;0.60;0.30;;;19.00;1.00;;;;;;4982740;28;20442;-78
2022/10/24 17:21:46;;;;;;;0.70;0.23;;;18.90;1.00;;;;;;4977995;28;20924;-77